Time;durP1;ratioP1;P1;durP2;ratioP2;P2;SDS_P1;SDS_P2;PMS_P1;PMS_P2;Temp;Humidity;BMP_temperature;BMP_pressure;BME280_temperature;BME280_humidity;BME280_pressure;Samples;Min_cycle;Max_cycle;Signal;HPM_P1;HPM_P2
2023/08/29 00:02:19;;;;;;;0.00;0.00;;;;;;;14.98;100.00;101279.63;5071674;28;20151;-47
2023/08/29 00:04:44;;;;;;;0.00;0.00;;;;;;;14.96;100.00;101282.56;5071916;28;20020;-48
2023/08/29 00:07:09;;;;;;;0.00;0.00;;;;;;;14.95;100.00;101286.28;5071757;28;20045;-48
2023/08/29 00:09:35;;;;;;;0.00;0.00;;;;;;;14.95;100.00;101289.00;5072284;28;20094;-48
2023/08/29 00:12:00;;;;;;;0.00;0.00;;;;;;;14.92;100.00;101282.09;5071806;28;20024;-47
2023/08/29 00:14:26;;;;;;;0.00;0.00;;;;;;;14.91;100.00;101283.16;5071962;28;20020;-45
2023/08/29 00:16:51;;;;;;;0.00;0.00;;;;;;;14.91;100.00;101285.03;5071680;28;20043;-48
2023/08/29 00:19:17;;;;;;;0.00;0.00;;;;;;;14.85;100.00;101275.81;5071980;28;20051;-46
2023/08/29 00:21:42;;;;;;;0.00;0.00;;;;;;;14.81;100.00;101269.13;5076145;28;20094;-50
2023/08/29 00:24:10;;;;;;;0.00;0.00;;;;;;;14.78;100.00;101274.09;5078011;28;20025;-48
2023/08/29 00:26:36;;;;;;;0.00;0.00;;;;;;;14.76;100.00;101277.00;5078244;28;20103;-50
2023/08/29 00:29:01;;;;;;;0.00;0.00;;;;;;;14.77;100.00;101272.41;5078087;28;20115;-48
2023/08/29 00:31:26;;;;;;;0.00;0.00;;;;;;;14.71;100.00;101274.06;5078001;28;20043;-47
2023/08/29 00:33:52;;;;;;;0.00;0.00;;;;;;;14.70;100.00;101266.97;5078017;28;20643;-49
2023/08/29 00:36:17;;;;;;;0.00;0.00;;;;;;;14.69;100.00;101268.00;5078035;28;20027;-46
2023/08/29 00:38:42;;;;;;;0.00;0.00;;;;;;;14.68;100.00;101269.88;5081821;28;20518;-50
2023/08/29 00:41:10;;;;;;;0.00;0.00;;;;;;;14.67;100.00;101273.63;5083020;28;20024;-48
2023/08/29 00:43:36;;;;;;;0.00;0.00;;;;;;;14.63;100.00;101277.75;5086150;28;20035;-48
2023/08/29 00:46:02;;;;;;;0.00;0.00;;;;;;;14.61;100.00;101277.13;5094886;28;20040;-49
2023/08/29 00:48:27;;;;;;;0.00;0.00;;;;;;;14.56;100.00;101271.47;5068747;28;20039;-48
2023/08/29 00:50:53;;;;;;;0.00;0.00;;;;;;;14.54;100.00;101267.28;5078091;28;20094;-51
2023/08/29 00:53:18;;;;;;;0.00;0.00;;;;;;;14.53;100.00;101273.72;5063667;28;20548;-48
2023/08/29 00:55:44;;;;;;;0.00;0.00;;;;;;;14.51;100.00;101273.91;5077991;28;20028;-51
2023/08/29 00:58:09;;;;;;;0.00;0.00;;;;;;;14.47;100.00;101267.19;5090749;28;20024;-46
2023/08/29 01:00:35;;;;;;;0.00;0.00;;;;;;;14.46;100.00;101276.38;5082106;28;20028;-47
2023/08/29 01:03:01;;;;;;;0.00;0.00;;;;;;;14.43;100.00;101276.75;5044696;28;20435;-48
2023/08/29 01:05:28;;;;;;;0.00;0.00;;;;;;;14.44;100.00;101278.44;5089084;28;20028;-47
2023/08/29 01:07:58;;;;;;;0.00;0.00;;;;;;;14.42;100.00;101284.03;5079032;28;20039;-49
2023/08/29 01:11:03;;;;;;;0.00;0.00;;;;;;;14.42;100.00;101280.50;5059934;28;20048;-48
2023/08/29 01:14:08;;;;;;;0.00;0.00;;;;;;;14.40;100.00;101280.69;5086101;28;20044;-48
2023/08/29 01:16:45;;;;;;;0.00;0.00;;;;;;;14.41;100.00;101278.81;5053593;28;20045;-47
2023/08/29 01:19:15;;;;;;;0.00;0.00;;;;;;;14.38;100.00;101268.38;5076074;28;20107;-47
2023/08/29 01:22:02;;;;;;;0.00;0.00;;;;;;;14.37;100.00;101274.81;5079650;28;20031;-49
2023/08/29 01:24:39;;;;;;;0.00;0.00;;;;;;;14.32;100.00;101269.97;5079263;28;20425;-50
2023/08/29 01:27:04;;;;;;;0.00;0.00;;;;;;;14.30;100.00;101269.38;5080050;28;20078;-46
2023/08/29 01:29:31;;;;;;;0.00;0.00;;;;;;;14.26;100.00;101274.31;5087655;28;20032;-48
2023/08/29 01:31:58;;;;;;;0.00;0.00;;;;;;;14.24;100.00;101265.56;5095921;28;20043;-48
2023/08/29 01:34:23;;;;;;;0.00;0.00;;;;;;;14.25;100.00;101274.53;5067592;28;20021;-49
2023/08/29 01:36:49;;;;;;;0.00;0.00;;;;;;;14.26;100.00;101259.94;5056119;28;20119;-47
2023/08/29 01:39:15;;;;;;;0.00;0.00;;;;;;;14.26;100.00;101259.94;5076048;28;20024;-49
2023/08/29 01:41:40;;;;;;;0.00;0.00;;;;;;;14.31;100.00;101253.97;5066123;28;20035;-49
2023/08/29 01:44:05;;;;;;;0.00;0.00;;;;;;;14.31;100.00;101253.97;5087328;28;20073;-49
2023/08/29 01:46:31;;;;;;;0.00;0.00;;;;;;;14.31;100.00;101256.66;5079464;28;20016;-51
2023/08/29 01:48:57;;;;;;;0.00;0.00;;;;;;;14.34;100.00;101262.50;5093552;28;20036;-45
2023/08/29 01:51:23;;;;;;;0.00;0.00;;;;;;;14.33;100.00;101270.84;5068225;28;20103;-47
2023/08/29 01:53:49;;;;;;;0.00;0.00;;;;;;;14.35;100.00;101274.16;5074147;28;20476;-48
2023/08/29 01:56:15;;;;;;;0.00;0.00;;;;;;;14.38;100.00;101274.63;5073723;28;20028;-48
2023/08/29 01:58:41;;;;;;;0.00;0.00;;;;;;;14.41;100.00;101276.13;5056445;28;20407;-46
2023/08/29 02:01:07;;;;;;;0.00;0.00;;;;;;;14.46;100.00;101281.78;5086682;28;20173;-47
2023/08/29 02:03:32;;;;;;;0.00;0.00;;;;;;;14.50;100.00;101278.47;5059260;28;20087;-45
2023/08/29 02:05:58;;;;;;;0.00;0.00;;;;;;;14.55;100.00;101279.78;5072832;28;20043;-47
2023/08/29 02:08:23;;;;;;;0.00;0.00;;;;;;;14.61;100.00;101273.56;5073179;28;20032;-49
2023/08/29 02:10:48;;;;;;;0.00;0.00;;;;;;;14.65;100.00;101278.41;5073714;28;20016;-45
2023/08/29 02:13:14;;;;;;;0.00;0.00;;;;;;;14.71;100.00;101283.00;5073459;28;20190;-50
2023/08/29 02:15:39;;;;;;;0.00;0.00;;;;;;;14.77;100.00;101284.13;5073556;28;20029;-45
2023/08/29 02:18:04;;;;;;;0.00;0.00;;;;;;;14.77;100.00;101272.41;5073500;28;20039;-48
2023/08/29 02:20:30;;;;;;;0.00;0.00;;;;;;;14.75;100.00;101269.09;5073352;28;20485;-47
2023/08/29 02:22:55;;;;;;;0.00;0.00;;;;;;;14.78;100.00;101272.22;5074034;28;20469;-45
2023/08/29 02:25:20;;;;;;;0.00;0.00;;;;;;;14.81;100.00;101268.28;5073680;28;20056;-47
2023/08/29 02:27:46;;;;;;;0.00;0.00;;;;;;;14.90;100.00;101277.91;5055762;28;20020;-50
2023/08/29 02:30:12;;;;;;;0.00;0.00;;;;;;;14.92;100.00;101275.84;5056497;28;20112;-51
2023/08/29 02:32:38;;;;;;;0.00;0.00;;;;;;;14.93;100.00;101275.66;5087541;28;20064;-49
2023/08/29 02:35:04;;;;;;;0.00;0.00;;;;;;;14.96;100.00;101271.72;5073154;28;20032;-49
2023/08/29 02:37:29;;;;;;;0.00;0.00;;;;;;;14.99;100.00;101265.88;5078163;28;20036;-49
2023/08/29 02:39:55;;;;;;;0.00;0.00;;;;;;;15.01;100.00;101258.41;5073150;28;20032;-49
2023/08/29 02:42:20;;;;;;;0.00;0.00;;;;;;;15.06;100.00;101260.47;5072659;28;20038;-49
2023/08/29 02:44:45;;;;;;;0.00;0.00;;;;;;;15.03;100.00;101261.72;5056579;28;20033;-50
2023/08/29 02:47:11;;;;;;;0.00;0.00;;;;;;;15.04;100.00;101268.84;5089614;28;20028;-47
2023/08/29 02:49:36;;;;;;;0.00;0.00;;;;;;;15.03;100.00;101269.84;5073374;28;20029;-49
2023/08/29 02:52:02;;;;;;;0.00;0.00;;;;;;;15.02;100.00;101276.31;5076546;28;20431;-50
2023/08/29 02:54:27;;;;;;;0.00;0.00;;;;;;;14.98;100.00;101275.06;5073575;28;20533;-47
2023/08/29 02:56:52;;;;;;;0.00;0.00;;;;;;;14.99;100.00;101276.72;5080303;28;20111;-49
2023/08/29 02:59:18;;;;;;;0.00;0.00;;;;;;;14.96;100.00;101281.72;5078292;28;20032;-48
2023/08/29 03:01:43;;;;;;;0.00;0.00;;;;;;;14.93;100.00;101294.63;5073978;28;20032;-47
2023/08/29 03:04:08;;;;;;;0.00;0.00;;;;;;;14.89;100.00;101287.91;5072727;28;20081;-51
2023/08/29 03:06:34;;;;;;;0.00;0.00;;;;;;;14.84;100.00;101284.97;5072460;28;20032;-49
2023/08/29 03:08:59;;;;;;;0.00;0.00;;;;;;;14.80;100.00;101275.59;5076402;28;20029;-46
2023/08/29 03:11:24;;;;;;;0.00;0.00;;;;;;;14.80;100.00;101277.47;5074735;28;20099;-48
2023/08/29 03:13:50;;;;;;;0.00;0.00;;;;;;;14.76;100.00;101284.31;5092482;28;20039;-49
2023/08/29 03:16:17;;;;;;;0.00;0.00;;;;;;;14.71;100.00;101280.31;5092630;28;20027;-49
2023/08/29 03:18:42;;;;;;;0.00;0.00;;;;;;;14.68;100.00;101286.13;5077924;28;20028;-49
2023/08/29 03:21:08;;;;;;;0.00;0.00;;;;;;;14.65;100.00;101283.81;5076367;28;20050;-48
2023/08/29 03:23:36;;;;;;;0.00;0.00;;;;;;;14.60;100.00;101289.00;5087323;28;20035;-46
2023/08/29 03:26:05;;;;;;;0.00;0.00;;;;;;;14.58;100.00;101291.06;5072034;28;20051;-48
2023/08/29 03:28:30;;;;;;;0.00;0.00;;;;;;;14.56;100.00;101284.16;5072777;28;20028;-51
2023/08/29 03:30:55;;;;;;;0.00;0.00;;;;;;;14.53;100.00;101277.25;5071709;28;20047;-48
2023/08/29 03:33:21;;;;;;;0.00;0.00;;;;;;;14.50;100.00;101283.03;5079825;28;20034;-50
2023/08/29 03:35:57;;;;;;;0.00;0.00;;;;;;;14.49;100.00;101281.38;5091834;28;20080;-47
2023/08/29 03:38:22;;;;;;;0.00;0.00;;;;;;;14.48;100.00;101279.69;5054145;28;20182;-48
2023/08/29 03:40:55;;;;;;;0.00;0.00;;;;;;;14.45;100.00;101274.66;5072019;28;20523;-50
2023/08/29 03:43:21;;;;;;;0.00;0.00;;;;;;;14.40;100.00;101271.72;5066173;28;20028;-48
2023/08/29 03:45:46;;;;;;;0.00;0.00;;;;;;;14.40;100.00;101275.28;5081299;28;20111;-47
2023/08/29 03:48:11;;;;;;;0.00;0.00;;;;;;;14.37;100.00;101269.41;5087888;28;20040;-49
2023/08/29 03:50:37;;;;;;;0.00;0.00;;;;;;;14.32;100.00;101279.97;5079439;28;20040;-48
2023/08/29 03:53:02;;;;;;;0.00;0.00;;;;;;;14.30;100.00;101279.34;5071491;28;20032;-48
2023/08/29 03:55:28;;;;;;;0.00;0.00;;;;;;;14.26;100.00;101281.59;5071012;28;20463;-47
2023/08/29 03:57:53;;;;;;;0.00;0.00;;;;;;;14.24;100.00;101281.81;5071852;28;20082;-51
2023/08/29 04:00:18;;;;;;;0.00;0.00;;;;;;;14.16;100.00;101271.09;5071728;28;20467;-51
2023/08/29 04:02:44;;;;;;;0.00;0.00;;;;;;;14.14;100.00;101284.03;5053169;28;20068;-48
2023/08/29 04:05:14;;;;;;;0.00;0.00;;;;;;;14.11;100.00;101286.25;5071688;28;20475;-49
2023/08/29 04:07:39;;;;;;;0.00;0.00;;;;;;;14.10;100.00;101293.56;5071602;28;20027;-46
2023/08/29 04:10:05;;;;;;;0.00;0.00;;;;;;;14.07;100.00;101302.06;5071855;28;20021;-45
2023/08/29 04:12:30;;;;;;;0.00;0.00;;;;;;;14.07;100.00;101296.66;5071383;28;20059;-46
2023/08/29 04:14:56;;;;;;;0.00;0.00;;;;;;;14.04;100.00;101289.75;5072206;28;20454;-48
2023/08/29 04:17:21;;;;;;;0.00;0.00;;;;;;;14.04;100.00;101289.75;5071798;28;20032;-47
2023/08/29 04:19:47;;;;;;;0.00;0.00;;;;;;;14.01;100.00;101278.50;5071996;28;20033;-49
2023/08/29 04:22:13;;;;;;;0.00;0.00;;;;;;;13.99;100.00;101280.53;5071653;28;20062;-47
2023/08/29 04:24:38;;;;;;;0.00;0.00;;;;;;;13.95;100.00;101271.13;5067091;28;20063;-47
2023/08/29 04:27:04;;;;;;;0.00;0.00;;;;;;;13.97;100.00;101269.06;5070302;28;20064;-48
2023/08/29 04:29:30;;;;;;;0.00;0.00;;;;;;;13.94;100.00;101264.06;5070834;28;20041;-46
2023/08/29 04:31:55;;;;;;;0.00;0.00;;;;;;;13.92;100.00;101260.69;5080866;28;20063;-48
2023/08/29 04:34:23;;;;;;;0.00;0.00;;;;;;;13.88;100.00;101256.72;5088130;28;20024;-47
2023/08/29 04:36:49;;;;;;;0.00;0.00;;;;;;;13.86;100.00;101253.34;5073071;28;20032;-48
2023/08/29 04:39:14;;;;;;;0.00;0.00;;;;;;;13.80;100.00;101255.81;5070884;28;20040;-47
2023/08/29 04:41:39;;;;;;;0.00;0.00;;;;;;;13.73;100.00;101246.78;5085128;28;20073;-49
2023/08/29 04:44:05;;;;;;;0.00;0.00;;;;;;;13.71;100.00;101254.25;5071741;28;20025;-50
2023/08/29 04:46:30;;;;;;;0.00;0.00;;;;;;;13.68;100.00;101260.03;5070549;28;20067;-47
2023/08/29 04:48:55;;;;;;;0.00;0.00;;;;;;;13.67;100.00;101261.09;5079641;28;20032;-47
2023/08/29 04:51:22;;;;;;;0.00;0.00;;;;;;;13.67;100.00;101266.50;5070128;28;20020;-46
2023/08/29 04:53:48;;;;;;;0.00;0.00;;;;;;;13.68;100.00;101260.03;5069982;28;20107;-51
2023/08/29 04:56:13;;;;;;;0.00;0.00;;;;;;;13.71;100.00;101261.53;5069936;28;20140;-49
2023/08/29 04:58:38;;;;;;;0.00;0.00;;;;;;;13.72;100.00;101258.63;5079266;28;20662;-49
2023/08/29 05:01:04;;;;;;;0.00;0.00;;;;;;;13.72;100.00;101264.06;5075300;28;20134;-49
2023/08/29 05:03:29;;;;;;;0.00;0.00;;;;;;;13.74;100.00;101253.84;5080658;28;20043;-45
2023/08/29 05:05:54;;;;;;;0.00;0.00;;;;;;;13.75;100.00;101255.53;5074000;28;20039;-49
2023/08/29 05:08:21;;;;;;;0.00;0.00;;;;;;;13.78;100.00;101251.63;5073368;28;20037;-47
2023/08/29 05:10:46;;;;;;;0.00;0.00;;;;;;;13.79;100.00;101245.16;5086373;28;20044;-48
2023/08/29 05:13:11;;;;;;;0.00;0.00;;;;;;;13.82;100.00;101247.47;5055818;28;20024;-48
2023/08/29 05:15:37;;;;;;;0.00;0.00;;;;;;;13.80;100.00;101246.84;5070240;28;20033;-47
2023/08/29 05:18:02;;;;;;;0.00;0.00;;;;;;;13.86;100.00;101247.94;5073732;28;20492;-45
2023/08/29 05:20:28;;;;;;;0.00;0.00;;;;;;;13.85;100.00;101257.94;5072484;28;20036;-47
2023/08/29 05:22:53;;;;;;;0.00;0.00;;;;;;;13.89;100.00;101247.56;5054492;28;20025;-47
2023/08/29 05:25:18;;;;;;;0.00;0.00;;;;;;;13.95;100.00;101252.19;5074149;28;20371;-47
2023/08/29 05:27:46;;;;;;;0.00;0.00;;;;;;;14.02;100.00;101253.09;5085531;28;20036;-47
2023/08/29 05:30:13;;;;;;;0.00;0.00;;;;;;;14.13;100.00;101241.72;5073848;28;20453;-47
2023/08/29 05:32:38;;;;;;;0.00;0.00;;;;;;;14.26;100.00;101241.81;5076952;28;20651;-48
2023/08/29 05:35:04;;;;;;;0.00;0.00;;;;;;;14.48;100.00;101241.78;5082994;28;20086;-47
2023/08/29 05:37:30;;;;;;;0.00;0.00;;;;;;;14.72;100.00;101237.81;5091389;28;20095;-50
2023/08/29 05:39:55;;;;;;;0.00;0.00;;;;;;;14.91;100.00;101230.81;5094706;28;20022;-48
2023/08/29 05:42:21;;;;;;;0.00;0.00;;;;;;;14.99;100.00;101225.22;5092181;28;20338;-47
2023/08/29 05:44:46;;;;;;;0.00;0.00;;;;;;;15.05;100.00;101221.69;5084807;28;20039;-47
2023/08/29 05:47:12;;;;;;;0.00;0.00;;;;;;;15.07;100.00;101207.97;5073729;28;20029;-47
2023/08/29 05:49:37;;;;;;;0.00;0.00;;;;;;;15.14;100.00;101208.81;5074083;28;20025;-47
2023/08/29 05:52:03;;;;;;;0.00;0.00;;;;;;;15.17;100.00;101213.84;5056221;28;20064;-51
2023/08/29 05:54:29;;;;;;;0.00;0.00;;;;;;;15.29;100.00;101205.94;5055635;28;20115;-50
2023/08/29 05:56:55;;;;;;;0.00;0.00;;;;;;;15.45;100.00;101200.13;5074992;28;20047;-50
2023/08/29 05:59:20;;;;;;;0.00;0.00;;;;;;;15.75;100.00;101206.06;5073027;28;20040;-47
2023/08/29 06:01:45;;;;;;;0.00;0.00;;;;;;;15.98;100.00;101197.53;5073821;28;20044;-53
2023/08/29 06:04:11;;;;;;;0.00;0.00;;;;;;;16.13;100.00;101191.03;5082248;28;20025;-47
2023/08/29 06:06:39;;;;;;;0.00;0.00;;;;;;;16.30;100.00;101197.72;5074210;28;20024;-47
2023/08/29 06:09:08;;;;;;;0.00;0.00;;;;;;;16.58;100.00;101185.72;5072415;28;20036;-48
2023/08/29 06:11:34;;;;;;;0.00;0.00;;;;;;;17.15;100.00;101183.25;5073386;28;20028;-48
2023/08/29 06:14:00;;;;;;;0.00;0.00;;;;;;;17.55;100.00;101183.84;5072925;28;20040;-47
2023/08/29 06:16:26;;;;;;;0.00;0.00;;;;;;;17.90;100.00;101169.78;5072743;28;20154;-49
2023/08/29 06:18:52;;;;;;;0.00;0.00;;;;;;;18.28;100.00;101166.91;5072158;28;20078;-48
2023/08/29 06:21:17;;;;;;;0.00;0.00;;;;;;;18.38;100.00;101160.97;5073140;28;20028;-47
2023/08/29 06:23:42;;;;;;;0.00;0.00;;;;;;;18.48;100.00;101163.97;5073887;28;20040;-47
2023/08/29 06:26:08;;;;;;;0.00;0.00;;;;;;;18.67;100.00;101158.50;5071854;28;20111;-49
2023/08/29 06:28:33;;;;;;;0.00;0.00;;;;;;;18.55;100.00;101151.09;5072928;28;20063;-47
2023/08/29 06:31:05;;;;;;;0.00;0.00;;;;;;;18.34;100.00;101148.81;5081261;28;20171;-47
2023/08/29 06:33:31;;;;;;;0.00;0.00;;;;;;;18.05;100.00;101159.38;5072352;28;20044;-45
2023/08/29 06:35:57;;;;;;;0.00;0.00;;;;;;;17.84;100.00;101157.06;5066228;28;20078;-48
2023/08/29 06:38:22;;;;;;;0.00;0.00;;;;;;;17.67;100.00;101160.31;5072596;28;20456;-51
2023/08/29 06:40:55;;;;;;;0.00;0.00;;;;;;;17.74;100.00;101162.97;5073254;28;20043;-48
2023/08/29 06:43:20;;;;;;;0.00;0.00;;;;;;;18.37;100.00;101164.72;5052652;28;20356;-48
2023/08/29 06:45:46;;;;;;;0.00;0.00;;;;;;;19.10;100.00;101157.59;5069271;28;20032;-48
2023/08/29 06:48:11;;;;;;;0.00;0.00;;;;;;;20.04;100.00;101155.94;5055017;28;20028;-48
2023/08/29 06:50:36;;;;;;;0.00;0.00;;;;;;;20.80;100.00;101147.75;5072511;28;20116;-48
2023/08/29 06:53:03;;;;;;;0.00;0.00;;;;;;;21.60;100.00;101138.63;5072083;28;20147;-47
2023/08/29 06:55:31;;;;;;;0.00;0.00;;;;;;;21.81;100.00;101133.47;5072701;28;20387;-47
2023/08/29 06:57:57;;;;;;;0.00;0.00;;;;;;;21.60;100.00;101140.53;5067233;28;20025;-47
2023/08/29 07:00:23;;;;;;;0.00;0.00;;;;;;;22.08;100.00;101145.41;5072211;28;20086;-45
2023/08/29 07:02:48;;;;;;;0.00;0.00;;;;;;;21.98;100.00;101141.69;5073547;28;20037;-47
2023/08/29 07:05:14;;;;;;;0.00;0.00;;;;;;;22.12;100.00;101148.50;5073324;28;20028;-48
2023/08/29 07:07:40;;;;;;;0.00;0.00;;;;;;;21.79;100.00;101146.59;5071273;28;20105;-49
2023/08/29 07:10:06;;;;;;;0.00;0.00;;;;;;;21.77;100.00;101148.75;5073000;28;20033;-47
2023/08/29 07:12:32;;;;;;;0.00;0.00;;;;;;;22.43;100.00;101157.16;5065414;28;20041;-48
2023/08/29 07:14:58;;;;;;;0.00;0.00;;;;;;;22.27;100.00;101153.38;5078165;28;20028;-48
2023/08/29 07:17:23;;;;;;;0.00;0.00;;;;;;;21.74;100.00;101149.25;5071274;28;20082;-52
2023/08/29 07:19:48;;;;;;;0.00;0.00;;;;;;;20.73;100.00;101150.66;5072085;28;20024;-47
2023/08/29 07:22:14;;;;;;;0.00;0.00;;;;;;;20.21;100.00;101147.03;5073188;28;20067;-49
2023/08/29 07:24:39;;;;;;;0.00;0.00;;;;;;;19.99;100.00;101144.06;5055051;28;20138;-51
2023/08/29 07:27:06;;;;;;;0.00;0.00;;;;;;;19.66;100.00;101156.34;5078251;28;20527;-49
2023/08/29 07:29:31;;;;;;;0.00;0.00;;;;;;;18.93;100.00;101144.59;5071298;28;20483;-51
2023/08/29 07:31:57;;;;;;;0.00;0.00;;;;;;;18.81;100.00;101144.53;5071239;28;20032;-49
2023/08/29 07:34:23;;;;;;;0.00;0.00;;;;;;;18.85;100.00;101140.31;5079164;28;20017;-48
2023/08/29 07:36:48;;;;;;;0.00;0.00;;;;;;;18.65;100.00;101151.41;5072958;28;20032;-48
2023/08/29 07:39:16;;;;;;;0.00;0.00;;;;;;;18.78;100.00;101147.72;5069583;28;20034;-50
2023/08/29 07:41:41;;;;;;;0.00;0.00;;;;;;;18.91;100.00;101154.91;5073552;28;20024;-47
2023/08/29 07:44:07;;;;;;;0.00;0.00;;;;;;;19.20;100.00;101152.44;5074690;28;20028;-48
2023/08/29 07:46:32;;;;;;;0.00;0.00;;;;;;;19.30;100.00;101147.25;5052608;28;20037;-49
2023/08/29 07:48:58;;;;;;;0.00;0.00;;;;;;;19.65;100.00;101143.75;5070979;28;20466;-46
2023/08/29 07:51:23;;;;;;;0.00;0.00;;;;;;;20.09;100.00;101147.00;5071098;28;20520;-46
2023/08/29 07:53:49;;;;;;;0.00;0.00;;;;;;;20.39;100.00;101153.19;5080046;28;20056;-48
2023/08/29 07:56:14;;;;;;;0.00;0.00;;;;;;;20.68;100.00;101142.34;5080924;28;20351;-47
2023/08/29 07:58:39;;;;;;;0.00;0.00;;;;;;;21.27;100.00;101151.19;5076655;28;20027;-47
2023/08/29 08:01:05;;;;;;;0.00;0.00;;;;;;;22.46;100.00;101137.47;5058216;28;20095;-49
2023/08/29 08:03:30;;;;;;;0.00;0.00;;;;;;;23.07;100.00;101140.16;5085250;28;20482;-48
2023/08/29 08:05:56;;;;;;;0.00;0.00;;;;;;;22.77;100.00;101144.16;5072155;28;20037;-47
2023/08/29 08:08:21;;;;;;;0.00;0.00;;;;;;;22.89;100.00;101142.13;5054042;28;20108;-47
2023/08/29 08:10:47;;;;;;;0.00;0.00;;;;;;;22.43;100.00;101140.72;5071617;28;20044;-48
2023/08/29 08:13:12;;;;;;;0.00;0.00;;;;;;;22.97;100.00;101133.47;5071594;28;20047;-50
2023/08/29 08:15:37;;;;;;;0.00;0.00;;;;;;;23.56;100.00;101143.63;5036436;28;20028;-49
2023/08/29 08:18:03;;;;;;;0.00;0.00;;;;;;;24.50;100.00;101146.81;5073891;28;20056;-50
2023/08/29 08:20:28;;;;;;;0.00;0.00;;;;;;;25.01;99.14;101144.25;5082039;28;20418;-48
2023/08/29 08:22:54;;;;;;;0.00;0.00;;;;;;;25.50;97.48;101149.34;5040171;28;20025;-49
2023/08/29 08:25:19;;;;;;;0.00;0.00;;;;;;;25.79;95.30;101135.00;5068620;28;20054;-48
2023/08/29 08:27:44;;;;;;;0.00;0.00;;;;;;;26.70;93.39;101131.25;5053210;28;20375;-47
2023/08/29 08:30:10;;;;;;;0.00;0.00;;;;;;;27.00;90.48;101132.19;5079020;28;20039;-47
2023/08/29 08:32:36;;;;;;;0.00;0.00;;;;;;;27.30;88.92;101131.19;5075414;28;20029;-46
2023/08/29 08:35:04;;;;;;;0.00;0.00;;;;;;;27.53;85.93;101124.09;5057765;28;20108;-46
2023/08/29 08:37:33;;;;;;;0.00;0.00;;;;;;;28.24;86.53;101121.78;5060753;28;20032;-46
2023/08/29 08:39:59;;;;;;;0.00;0.00;;;;;;;28.61;82.02;101115.56;5075204;28;20024;-49
2023/08/29 08:42:24;;;;;;;0.00;0.00;;;;;;;29.10;77.00;101119.06;5072795;28;20411;-46
2023/08/29 08:44:50;;;;;;;0.00;0.00;;;;;;;29.05;77.73;101119.97;5060099;28;20033;-46
2023/08/29 08:47:16;;;;;;;0.00;0.00;;;;;;;27.59;79.78;101111.06;5064726;28;20048;-50
2023/08/29 08:49:41;;;;;;;0.00;0.00;;;;;;;26.25;83.15;101110.13;5064660;28;20025;-48
2023/08/29 08:52:10;;;;;;;0.00;0.00;;;;;;;24.45;89.70;101106.34;5040754;28;20020;-46
2023/08/29 08:54:35;;;;;;;0.00;0.00;;;;;;;22.95;99.52;101099.91;5075065;28;20025;-47
2023/08/29 08:57:01;;;;;;;0.00;0.00;;;;;;;22.58;100.00;101097.84;5075118;28;20036;-46
2023/08/29 08:59:26;;;;;;;0.00;0.00;;;;;;;22.02;100.00;101101.75;5075088;28;20024;-48
2023/08/29 09:01:55;;;;;;;0.00;0.00;;;;;;;21.31;100.00;101098.66;5077013;28;20508;-46
2023/08/29 09:04:22;;;;;;;0.00;0.00;;;;;;;20.85;100.00;101100.53;5080033;28;20024;-47
2023/08/29 09:06:48;;;;;;;0.00;0.00;;;;;;;20.78;100.00;101092.50;5075840;28;20047;-48
2023/08/29 09:09:23;;;;;;;0.00;0.00;;;;;;;20.78;100.00;101087.03;5079113;28;20036;-48
2023/08/29 09:11:52;;;;;;;0.00;0.00;;;;;;;20.76;100.00;101089.16;5087033;28;20033;-46
2023/08/29 09:14:18;;;;;;;0.00;0.00;;;;;;;20.47;100.00;101100.03;5075462;28;20040;-50
2023/08/29 09:16:43;;;;;;;0.00;0.00;;;;;;;20.88;100.00;101102.78;5073213;28;20020;-48
2023/08/29 09:19:09;;;;;;;0.00;0.00;;;;;;;21.83;100.00;101092.97;5074821;28;20071;-48
2023/08/29 09:21:35;;;;;;;0.00;0.00;;;;;;;22.89;100.00;101092.72;5073544;28;20517;-49
2023/08/29 09:24:00;;;;;;;0.00;0.00;;;;;;;24.29;98.51;101094.41;5059625;28;20064;-45
2023/08/29 09:26:32;;;;;;;0.00;0.00;;;;;;;25.31;92.88;101095.88;5060860;28;20033;-47
2023/08/29 09:28:58;;;;;;;0.00;0.00;;;;;;;26.21;88.78;101092.50;5057502;28;20383;-46
2023/08/29 09:31:24;;;;;;;0.00;0.00;;;;;;;26.48;82.12;101098.44;5075337;28;20024;-45
2023/08/29 09:33:50;;;;;;;0.00;0.00;;;;;;;25.92;83.68;101095.03;5074686;28;20040;-49
2023/08/29 09:36:16;;;;;;;0.00;0.00;;;;;;;26.42;83.21;101087.72;5078726;28;20474;-46
2023/08/29 09:38:41;;;;;;;0.00;0.00;;;;;;;25.63;83.61;101098.34;5068649;28;20112;-49
2023/08/29 09:41:13;;;;;;;0.00;0.00;;;;;;;24.35;89.09;101089.75;5071181;28;20165;-48
2023/08/29 09:43:47;;;;;;;0.00;0.00;;;;;;;23.90;91.03;101082.09;5081914;28;20107;-49
2023/08/29 09:46:12;;;;;;;0.00;0.00;;;;;;;23.33;92.19;101081.66;5057845;28;20021;-47
2023/08/29 09:48:53;;;;;;;0.00;0.00;;;;;;;22.86;94.24;101085.00;5066931;28;20036;-48
2023/08/29 09:51:19;;;;;;;0.00;0.00;;;;;;;21.86;92.04;101070.56;5067953;28;20066;-45
2023/08/29 09:53:44;;;;;;;0.00;0.00;;;;;;;21.72;96.01;101070.03;5067076;28;20478;-47
2023/08/29 09:56:10;;;;;;;0.00;0.00;;;;;;;21.81;98.47;101071.28;5058785;28;20052;-47
2023/08/29 09:58:38;;;;;;;0.00;0.00;;;;;;;21.32;96.19;101073.75;5042979;28;20044;-47
2023/08/29 10:01:04;;;;;;;;;;;;;;;21.05;97.99;101076.31;5048376;28;20132;-47
2023/08/29 10:03:30;;;;;;;0.00;0.00;;;;;;;21.07;100.00;101070.59;5054693;28;19923;-47
2023/08/29 10:05:56;;;;;;;0.00;0.00;;;;;;;21.11;100.00;101078.03;5072130;28;20032;-50
2023/08/29 10:08:26;;;;;;;0.00;0.00;;;;;;;21.47;100.00;101067.75;5059587;28;20025;-44
2023/08/29 10:10:56;;;;;;;0.00;0.00;;;;;;;21.84;100.00;101069.97;5053297;28;20029;-49
2023/08/29 10:13:22;;;;;;;0.00;0.00;;;;;;;21.78;99.19;101070.97;5078246;28;20064;-47
2023/08/29 10:15:48;;;;;;;0.00;0.00;;;;;;;21.58;99.05;101058.59;5055469;28;20035;-48
2023/08/29 10:18:14;;;;;;;0.00;0.00;;;;;;;21.29;100.00;101073.44;5060660;28;20178;-47
2023/08/29 10:20:43;;;;;;;0.00;0.00;;;;;;;21.26;100.00;101061.91;5073170;28;20024;-47
2023/08/29 10:23:10;;;;;;;0.00;0.00;;;;;;;21.07;100.00;101067.88;5054892;28;20027;-45
2023/08/29 10:25:38;;;;;;;0.00;0.00;;;;;;;21.21;100.00;101063.72;5079932;28;20028;-48
2023/08/29 10:28:05;;;;;;;0.00;0.00;;;;;;;21.24;100.00;101072.25;5068833;28;20028;-46
2023/08/29 10:30:31;;;;;;;0.00;0.00;;;;;;;21.32;100.00;101064.72;5072754;28;20055;-49
2023/08/29 10:32:57;;;;;;;0.00;0.00;;;;;;;21.43;100.00;101061.94;5048059;28;20032;-48
2023/08/29 10:35:23;;;;;;;0.00;0.00;;;;;;;21.43;100.00;101055.63;5054906;28;20154;-46
2023/08/29 10:37:52;;;;;;;0.00;0.00;;;;;;;21.29;100.00;101049.63;5048980;28;20051;-48
2023/08/29 10:40:18;;;;;;;0.00;0.00;;;;;;;21.07;100.00;101057.75;5067340;28;20044;-46
2023/08/29 10:42:48;;;;;;;0.00;0.00;;;;;;;20.94;100.00;101053.41;5067506;28;20029;-48
2023/08/29 10:45:14;;;;;;;0.00;0.00;;;;;;;20.90;100.00;101056.88;5067355;28;20040;-47
2023/08/29 10:47:45;;;;;;;0.00;0.00;;;;;;;20.86;100.00;101055.72;5066658;28;20114;-45
2023/08/29 10:50:19;;;;;;;0.00;0.00;;;;;;;20.61;100.00;101054.13;5066481;28;20466;-50
2023/08/29 10:52:46;;;;;;;0.00;0.00;;;;;;;20.68;100.00;101051.25;5066728;28;20033;-50
2023/08/29 10:55:27;;;;;;;0.00;0.00;;;;;;;20.70;100.00;101060.88;5067383;28;20047;-48
2023/08/29 10:57:53;;;;;;;0.00;0.00;;;;;;;20.81;100.00;101064.66;5066962;28;20036;-50
2023/08/29 11:00:33;;;;;;;0.00;0.00;;;;;;;20.76;97.63;101059.91;5066821;28;20131;-49
2023/08/29 11:02:59;;;;;;;0.00;0.00;;;;;;;20.85;99.98;101049.38;5066519;28;20045;-46
2023/08/29 11:05:25;;;;;;;0.00;0.00;;;;;;;20.78;98.35;101052.28;5066675;28;20032;-47
2023/08/29 11:07:50;;;;;;;0.00;0.00;;;;;;;20.94;99.56;101044.38;5052588;28;20054;-46
2023/08/29 11:10:22;;;;;;;0.00;0.00;;;;;;;20.81;100.00;101048.22;5068596;28;20040;-46
2023/08/29 11:13:06;;;;;;;0.00;0.00;;;;;;;20.74;100.00;101048.38;5068104;28;20792;-44
2023/08/29 11:15:46;;;;;;;0.00;0.00;;;;;;;20.81;100.00;101043.59;5063536;28;20024;-49
2023/08/29 11:18:19;;;;;;;0.00;0.00;;;;;;;20.44;100.00;101050.50;5067191;28;20548;-45